Time;durP1;ratioP1;P1;durP2;ratioP2;P2;SDS_P1;SDS_P2;PMS_P1;PMS_P2;Temp;Humidity;BMP_temperature;BMP_pressure;BME280_temperature;BME280_humidity;BME280_pressure;Samples;Min_cycle;Max_cycle;Signal;HPM_P1;HPM_P2
2022/07/25 00:01:56;;;;;;;2.70;1.00;;;16.40;99.90;;;;;;4962746;28;20461;-87
2022/07/25 00:04:24;;;;;;;3.35;1.00;;;16.40;99.90;;;;;;4935669;29;20447;-85
2022/07/25 00:06:52;;;;;;;4.03;0.90;;;16.40;99.90;;;;;;4947620;28;20423;-85
2022/07/25 00:09:20;;;;;;;3.53;1.00;;;16.40;99.90;;;;;;4941084;28;20477;-87
2022/07/25 00:11:47;;;;;;;3.53;0.90;;;16.50;99.90;;;;;;4967107;28;20454;-87
2022/07/25 00:14:15;;;;;;;2.90;0.77;;;16.50;99.90;;;;;;4966754;28;20414;-87
2022/07/25 00:16:43;;;;;;;3.10;1.00;;;16.40;99.90;;;;;;4932534;29;20410;-87
2022/07/25 00:19:11;;;;;;;5.38;0.80;;;16.40;99.90;;;;;;4942579;28;20414;-86
2022/07/25 00:21:38;;;;;;;3.80;0.90;;;16.30;99.90;;;;;;4956775;28;20417;-87
2022/07/25 00:24:08;;;;;;;1.85;0.70;;;16.30;99.90;;;;;;4966582;28;20420;-86
2022/07/25 00:26:36;;;;;;;2.72;1.10;;;16.30;99.90;;;;;;4966348;28;20923;-86
2022/07/25 00:29:07;;;;;;;2.28;0.95;;;16.30;99.90;;;;;;4937676;29;20424;-85
2022/07/25 00:31:34;;;;;;;2.85;1.00;;;16.30;99.90;;;;;;4966477;28;20476;-86
2022/07/25 00:34:02;;;;;;;2.73;0.90;;;16.40;99.90;;;;;;4935745;29;21003;-86
2022/07/25 00:36:31;;;;;;;2.13;0.82;;;16.30;99.90;;;;;;4924729;29;20421;-86
2022/07/25 00:38:59;;;;;;;2.22;0.80;;;16.40;99.90;;;;;;4966455;28;20417;-86
2022/07/25 00:41:29;;;;;;;2.20;0.90;;;16.30;99.90;;;;;;4950446;29;20413;-86
2022/07/25 00:43:57;;;;;;;3.72;1.10;;;16.20;99.90;;;;;;4934628;29;20413;-86
2022/07/25 00:46:25;;;;;;;3.20;0.80;;;16.30;99.90;;;;;;4968311;28;20416;-86
2022/07/25 00:48:53;;;;;;;3.50;0.90;;;16.30;99.90;;;;;;4934852;29;20430;-88
2022/07/25 00:51:21;;;;;;;3.35;0.90;;;16.30;99.90;;;;;;4949766;28;20469;-86
2022/07/25 00:53:49;;;;;;;2.63;0.70;;;16.30;99.90;;;;;;4933709;29;20900;-87
2022/07/25 00:56:17;;;;;;;3.33;0.90;;;16.30;99.90;;;;;;4917303;29;20419;-86
2022/07/25 00:58:44;;;;;;;2.78;0.90;;;16.20;99.90;;;;;;5036509;22;20424;-83
2022/07/25 01:01:12;;;;;;;5.72;0.93;;;16.20;99.90;;;;;;4991982;28;20411;-83
2022/07/25 01:03:40;;;;;;;2.30;0.80;;;16.20;99.90;;;;;;4963441;28;20463;-83
2022/07/25 01:06:08;;;;;;;3.42;0.82;;;16.20;99.90;;;;;;4964168;28;20417;-83
2022/07/25 01:08:36;;;;;;;3.08;0.80;;;16.30;99.90;;;;;;4963150;28;20426;-83
2022/07/25 01:11:07;;;;;;;3.07;0.90;;;16.30;99.90;;;;;;4964770;28;20409;-83
2022/07/25 01:13:34;;;;;;;3.03;0.90;;;16.30;99.90;;;;;;4954583;28;20418;-83
2022/07/25 01:16:05;;;;;;;3.40;0.90;;;16.30;99.90;;;;;;4961474;28;20404;-83
2022/07/25 01:18:40;;;;;;;3.22;1.20;;;16.30;99.90;;;;;;4957718;28;20408;-83
2022/07/25 01:21:08;;;;;;;2.05;0.80;;;16.40;99.90;;;;;;4956584;28;20412;-83
2022/07/25 01:23:38;;;;;;;2.88;0.73;;;16.30;99.90;;;;;;4965104;28;20414;-83
2022/07/25 01:26:07;;;;;;;1.35;0.60;;;16.10;99.90;;;;;;4961679;28;20392;-82
2022/07/25 01:28:35;;;;;;;3.60;0.90;;;16.00;99.90;;;;;;4954108;29;20385;-83
2022/07/25 01:31:03;;;;;;;2.60;0.80;;;16.10;99.90;;;;;;4953601;28;20558;-83
2022/07/25 01:33:30;;;;;;;4.13;0.87;;;16.10;99.90;;;;;;4994661;28;20757;-83
2022/07/25 01:35:58;;;;;;;2.00;0.80;;;16.10;99.90;;;;;;4966604;28;20901;-83
2022/07/25 01:38:26;;;;;;;1.60;0.80;;;16.20;99.90;;;;;;4988258;28;20408;-83
2022/07/25 01:40:53;;;;;;;2.53;0.93;;;16.20;99.90;;;;;;4961086;28;20399;-82
2022/07/25 01:43:21;;;;;;;2.58;0.70;;;15.90;99.90;;;;;;4993886;28;20490;-83
2022/07/25 01:45:49;;;;;;;2.25;0.70;;;15.90;99.90;;;;;;4961677;28;20414;-83
2022/07/25 01:48:16;;;;;;;2.63;0.60;;;16.00;99.90;;;;;;4977578;28;20457;-83
2022/07/25 01:50:46;;;;;;;2.22;0.80;;;16.00;99.90;;;;;;4962666;28;20419;-83
2022/07/25 01:53:15;;;;;;;3.45;0.95;;;16.10;99.90;;;;;;4958730;28;20415;-84
2022/07/25 01:55:45;;;;;;;3.30;0.88;;;16.00;99.90;;;;;;4964455;28;20442;-83
2022/07/25 01:58:12;;;;;;;2.53;0.80;;;16.00;99.90;;;;;;4995116;28;20908;-83
2022/07/25 02:00:40;;;;;;;3.50;1.00;;;16.00;99.90;;;;;;4954973;28;20424;-83
2022/07/25 02:05:54;;;;;;;3.55;0.70;;;16.00;99.90;;;;;;4984191;28;20397;-83
2022/07/25 02:08:22;;;;;;;2.90;0.80;;;15.90;99.90;;;;;;4983450;28;20439;-82
2022/07/25 02:10:50;;;;;;;3.25;0.80;;;15.90;99.90;;;;;;4971555;28;20394;-83
2022/07/25 02:13:18;;;;;;;2.38;0.70;;;16.00;99.90;;;;;;4966684;28;20778;-83
2022/07/25 02:15:46;;;;;;;2.38;0.80;;;16.00;99.90;;;;;;4986396;28;20396;-82
2022/07/25 02:18:14;;;;;;;2.55;0.73;;;15.90;99.90;;;;;;4961511;28;20403;-84
2022/07/25 02:20:42;;;;;;;3.03;0.90;;;15.90;99.90;;;;;;4970851;28;20403;-83
2022/07/25 02:23:10;;;;;;;3.88;0.88;;;15.60;99.90;;;;;;4993446;28;20572;-83
2022/07/25 02:25:38;;;;;;;1.45;0.80;;;15.70;99.90;;;;;;4963661;28;20418;-83
2022/07/25 02:28:05;;;;;;;2.10;0.80;;;15.80;99.90;;;;;;4963138;28;20402;-82
2022/07/25 02:30:36;;;;;;;2.95;0.98;;;15.80;99.90;;;;;;4994120;28;20406;-83
2022/07/25 02:33:04;;;;;;;2.33;0.97;;;15.80;99.90;;;;;;4963041;28;20768;-83
2022/07/25 02:35:32;;;;;;;3.83;0.80;;;15.60;99.90;;;;;;4989773;28;20838;-83
2022/07/25 02:38:01;;;;;;;1.45;0.70;;;15.70;99.90;;;;;;4974198;28;20412;-83
2022/07/25 02:40:28;;;;;;;2.22;0.90;;;15.70;99.90;;;;;;4976497;28;20491;-83
2022/07/25 02:42:56;;;;;;;3.90;1.00;;;15.80;99.90;;;;;;4956822;28;20404;-83
2022/07/25 02:45:24;;;;;;;1.90;0.80;;;15.70;99.90;;;;;;4978503;28;20508;-83
2022/07/25 02:50:35;;;;;;;3.50;0.80;;;15.60;99.90;;;;;;4881052;29;20996;-81
2022/07/25 02:53:03;;;;;;;2.90;0.83;;;15.70;99.90;;;;;;4904236;29;20500;-83
2022/07/25 02:55:31;;;;;;;2.97;0.90;;;15.70;99.90;;;;;;4886320;29;20413;-81
2022/07/25 02:57:58;;;;;;;2.10;0.80;;;15.60;99.90;;;;;;4900577;29;20435;-81
2022/07/25 03:00:26;;;;;;;2.65;0.82;;;15.70;99.90;;;;;;4894383;29;20892;-82
2022/07/25 03:02:54;;;;;;;4.47;0.90;;;15.70;99.90;;;;;;4888644;29;20769;-82
2022/07/25 03:05:21;;;;;;;2.13;0.80;;;15.70;99.90;;;;;;4887929;29;20417;-82
2022/07/25 03:07:49;;;;;;;2.15;0.70;;;15.70;99.90;;;;;;4899957;29;20403;-81
2022/07/25 03:10:17;;;;;;;1.70;0.80;;;15.80;99.90;;;;;;4898695;29;20421;-81
2022/07/25 03:12:45;;;;;;;3.63;1.10;;;15.80;99.90;;;;;;4894990;29;20843;-82
2022/07/25 03:15:13;;;;;;;1.48;0.80;;;15.70;99.90;;;;;;4886942;29;20424;-82
2022/07/25 03:17:41;;;;;;;5.18;0.90;;;15.60;99.90;;;;;;4898728;29;20427;-82
2022/07/25 03:20:09;;;;;;;1.95;0.80;;;15.60;99.90;;;;;;4877327;29;20593;-82
2022/07/25 03:22:37;;;;;;;2.20;0.70;;;15.70;99.90;;;;;;4884452;29;20427;-81
2022/07/25 03:25:05;;;;;;;2.10;0.70;;;15.70;99.90;;;;;;4887528;29;20900;-82
2022/07/25 03:27:42;;;;;;;1.63;0.70;;;15.70;99.90;;;;;;4900692;29;20475;-82
2022/07/25 03:30:11;;;;;;;2.47;0.70;;;15.80;99.90;;;;;;4896970;29;20415;-81
2022/07/25 03:32:39;;;;;;;1.63;0.70;;;15.70;99.90;;;;;;4883799;29;20420;-82
2022/07/25 03:35:08;;;;;;;1.80;0.70;;;15.60;99.90;;;;;;4879849;29;20502;-81
2022/07/25 03:37:35;;;;;;;2.53;0.90;;;15.60;99.90;;;;;;4885803;29;20401;-80
2022/07/25 03:40:04;;;;;;;2.00;0.60;;;15.60;99.90;;;;;;4885958;29;20906;-82
2022/07/25 03:42:32;;;;;;;1.25;0.80;;;15.60;99.90;;;;;;4893740;29;20418;-81
2022/07/25 03:45:02;;;;;;;3.87;0.90;;;15.60;99.90;;;;;;4885651;29;20421;-82
2022/07/25 03:47:29;;;;;;;3.80;0.80;;;15.60;99.90;;;;;;4891123;29;20499;-82
2022/07/25 03:49:57;;;;;;;1.38;0.80;;;15.60;99.90;;;;;;4895962;29;20791;-81
2022/07/25 03:52:25;;;;;;;2.97;1.13;;;15.60;99.90;;;;;;4888900;29;20498;-82
2022/07/25 03:54:52;;;;;;;2.55;0.93;;;15.50;99.90;;;;;;4904787;29;20413;-82
2022/07/25 03:57:20;;;;;;;1.35;0.70;;;15.60;99.90;;;;;;4889005;29;20493;-81
2022/07/25 03:59:47;;;;;;;1.65;0.70;;;15.60;99.90;;;;;;4903251;29;20413;-81
2022/07/25 04:02:15;;;;;;;1.38;0.80;;;15.60;99.90;;;;;;4892356;29;20447;-81
2022/07/25 04:04:42;;;;;;;2.25;0.90;;;15.60;99.90;;;;;;4893283;29;20439;-81
2022/07/25 04:07:10;;;;;;;2.35;0.70;;;15.60;99.90;;;;;;4904987;29;20441;-81
2022/07/25 04:09:38;;;;;;;2.58;0.90;;;15.70;99.90;;;;;;4882935;29;20426;-81
2022/07/25 04:12:06;;;;;;;3.20;1.00;;;15.70;99.90;;;;;;4896584;29;20466;-82
2022/07/25 04:14:33;;;;;;;3.17;0.80;;;15.70;99.90;;;;;;4889941;29;20413;-81
2022/07/25 04:17:01;;;;;;;1.40;0.77;;;15.80;99.90;;;;;;4888455;29;20395;-81
2022/07/25 04:19:29;;;;;;;1.65;0.80;;;15.70;99.90;;;;;;4903684;29;20417;-82
2022/07/25 04:21:56;;;;;;;2.17;0.90;;;15.80;99.90;;;;;;4901108;29;20927;-83
2022/07/25 04:24:24;;;;;;;2.50;0.95;;;15.80;99.90;;;;;;4888352;29;20906;-82
2022/07/25 04:26:51;;;;;;;2.75;0.90;;;15.80;99.90;;;;;;4903473;29;21504;-81
2022/07/25 04:29:19;;;;;;;2.65;1.00;;;15.80;99.90;;;;;;4904696;29;20417;-81
2022/07/25 04:31:47;;;;;;;4.70;1.33;;;15.90;99.90;;;;;;4885541;29;20434;-82
2022/07/25 04:34:15;;;;;;;2.22;0.95;;;15.90;99.90;;;;;;4881753;29;20836;-81
2022/07/25 04:36:42;;;;;;;3.95;1.00;;;15.90;99.90;;;;;;4891247;29;20420;-82
2022/07/25 04:39:10;;;;;;;7.13;1.30;;;15.90;99.90;;;;;;4896415;29;20873;-81
2022/07/25 04:41:38;;;;;;;2.38;1.02;;;15.90;99.90;;;;;;4881408;29;20425;-81
2022/07/25 04:44:06;;;;;;;2.40;1.20;;;15.90;99.90;;;;;;4889667;29;20403;-81
2022/07/25 04:46:35;;;;;;;1.77;1.10;;;15.90;99.90;;;;;;4894434;29;20535;-82
2022/07/25 04:49:02;;;;;;;3.55;1.17;;;16.00;99.90;;;;;;4894602;29;20419;-80
2022/07/25 04:51:30;;;;;;;2.75;1.15;;;16.00;99.90;;;;;;4903000;29;20403;-81
2022/07/25 04:53:58;;;;;;;2.60;1.10;;;16.00;99.90;;;;;;4889355;29;20407;-81
2022/07/25 04:56:26;;;;;;;3.47;1.30;;;16.00;99.90;;;;;;4889859;29;20965;-81
2022/07/25 04:58:53;;;;;;;3.47;1.70;;;16.00;99.90;;;;;;4889721;29;20891;-81
2022/07/25 05:01:21;;;;;;;2.53;1.20;;;16.10;99.90;;;;;;4888785;29;20420;-81
2022/07/25 05:03:48;;;;;;;2.30;1.20;;;16.10;99.90;;;;;;4895957;29;20425;-81
2022/07/25 05:06:18;;;;;;;2.65;1.20;;;16.20;99.90;;;;;;4895841;29;20975;-80
2022/07/25 05:08:46;;;;;;;3.55;1.30;;;16.20;99.90;;;;;;4882873;29;20437;-82
2022/07/25 05:11:13;;;;;;;3.20;1.65;;;16.20;99.90;;;;;;4895278;29;20888;-81
2022/07/25 05:13:41;;;;;;;4.05;1.70;;;16.20;99.90;;;;;;4880419;29;20427;-82
2022/07/25 05:16:08;;;;;;;3.08;1.85;;;16.20;99.90;;;;;;4893091;29;20449;-81
2022/07/25 05:18:36;;;;;;;4.38;1.80;;;16.20;99.90;;;;;;4879960;29;20778;-81
2022/07/25 05:21:04;;;;;;;3.70;1.83;;;16.20;99.90;;;;;;4885898;29;20911;-82
2022/07/25 05:23:31;;;;;;;4.15;1.85;;;16.30;99.90;;;;;;4903087;29;20424;-81
2022/07/25 05:25:59;;;;;;;3.67;1.80;;;16.30;99.90;;;;;;4887735;29;20894;-81
2022/07/25 05:28:26;;;;;;;2.67;1.63;;;16.30;99.90;;;;;;4888323;29;20403;-81
2022/07/25 05:30:54;;;;;;;3.73;1.90;;;16.30;99.90;;;;;;4878376;29;20400;-82
2022/07/25 05:33:21;;;;;;;4.22;1.75;;;16.40;99.90;;;;;;4889030;29;20409;-81
2022/07/25 05:35:49;;;;;;;3.30;1.65;;;16.40;99.90;;;;;;4902775;29;20497;-81
2022/07/25 05:38:16;;;;;;;4.57;1.83;;;16.50;99.90;;;;;;4901242;29;20418;-81
2022/07/25 05:40:44;;;;;;;4.93;1.95;;;16.50;99.90;;;;;;4892224;29;20761;-82
2022/07/25 05:43:12;;;;;;;2.58;1.80;;;16.50;99.90;;;;;;4895578;29;20485;-82
2022/07/25 05:45:39;;;;;;;4.67;1.70;;;16.60;99.90;;;;;;4887999;29;20429;-81
2022/07/25 05:48:07;;;;;;;2.42;1.63;;;16.60;99.90;;;;;;4881353;29;20459;-81
2022/07/25 05:50:39;;;;;;;4.47;1.70;;;16.60;99.90;;;;;;4846121;29;20423;-81
2022/07/25 05:53:07;;;;;;;2.75;1.60;;;16.60;99.90;;;;;;4848392;29;20575;-81
2022/07/25 05:55:34;;;;;;;2.67;1.60;;;16.70;99.90;;;;;;4865592;29;20429;-81
2022/07/25 05:58:08;;;;;;;3.20;1.70;;;16.70;99.90;;;;;;4855356;29;20492;-81
2022/07/25 06:00:36;;;;;;;2.25;1.70;;;16.70;99.90;;;;;;4851901;29;20789;-81
2022/07/25 06:03:04;;;;;;;4.03;1.70;;;16.70;99.90;;;;;;4849125;29;20414;-81
2022/07/25 06:05:32;;;;;;;2.80;1.53;;;16.70;99.90;;;;;;4839627;29;20422;-81
2022/07/25 06:07:59;;;;;;;3.10;1.60;;;16.70;99.90;;;;;;4848244;29;20457;-81
2022/07/25 06:10:27;;;;;;;3.08;1.95;;;16.80;99.90;;;;;;4857470;29;20424;-81
2022/07/25 06:12:54;;;;;;;3.72;1.63;;;16.80;99.90;;;;;;4865634;29;20418;-81
2022/07/25 06:15:22;;;;;;;3.50;1.60;;;16.80;99.90;;;;;;4863206;29;20436;-83
2022/07/25 06:17:53;;;;;;;3.40;2.00;;;16.80;99.90;;;;;;4857901;29;20476;-82
2022/07/25 06:20:21;;;;;;;3.88;1.63;;;16.80;99.90;;;;;;4855415;29;20406;-81
2022/07/25 06:22:49;;;;;;;3.10;1.70;;;16.90;99.90;;;;;;4865421;29;20426;-82
2022/07/25 06:25:17;;;;;;;2.35;1.50;;;17.00;99.90;;;;;;4865383;29;20504;-82
2022/07/25 06:27:44;;;;;;;3.25;1.45;;;17.00;99.90;;;;;;4842504;29;20421;-82
2022/07/25 06:30:12;;;;;;;2.63;1.48;;;17.10;99.90;;;;;;4848155;29;20416;-81
2022/07/25 06:32:48;;;;;;;2.60;1.50;;;17.10;99.90;;;;;;4848193;29;20775;-82
2022/07/25 06:35:16;;;;;;;1.48;1.27;;;17.10;99.90;;;;;;4849367;29;20441;-82
2022/07/25 06:37:44;;;;;;;2.92;1.50;;;17.20;99.90;;;;;;4849295;29;20426;-82
2022/07/25 06:40:12;;;;;;;2.80;1.27;;;17.20;99.90;;;;;;4849543;29;20479;-82
2022/07/25 06:42:42;;;;;;;3.85;1.58;;;17.20;99.90;;;;;;4852344;29;20424;-82
2022/07/25 06:45:11;;;;;;;2.83;1.40;;;17.30;99.90;;;;;;4851967;29;20421;-82
2022/07/25 06:47:40;;;;;;;2.53;1.50;;;17.40;99.90;;;;;;4856266;29;20930;-82
2022/07/25 06:50:13;;;;;;;3.17;1.40;;;17.40;99.90;;;;;;4886749;29;20421;-82
2022/07/25 06:52:41;;;;;;;1.58;1.40;;;17.50;99.90;;;;;;4899102;29;20425;-82
2022/07/25 06:55:10;;;;;;;2.60;1.40;;;17.60;99.90;;;;;;4888066;29;20426;-82
2022/07/25 06:57:38;;;;;;;1.73;1.23;;;17.60;99.90;;;;;;4895348;29;20411;-83
2022/07/25 07:00:09;;;;;;;2.78;1.15;;;17.60;99.90;;;;;;4899352;29;20415;-83
2022/07/25 07:02:59;;;;;;;1.77;1.23;;;17.60;99.90;;;;;;4894315;29;20476;-82
2022/07/25 07:05:32;;;;;;;3.03;1.30;;;17.60;99.90;;;;;;4894409;29;20413;-82
2022/07/25 07:08:00;;;;;;;4.45;1.40;;;17.60;99.90;;;;;;4886314;29;20476;-83
2022/07/25 07:10:27;;;;;;;1.40;1.10;;;17.60;99.90;;;;;;4894271;29;20413;-83
2022/07/25 07:13:10;;;;;;;1.83;1.00;;;17.70;99.90;;;;;;4916522;29;20429;-83
2022/07/25 07:15:43;;;;;;;1.63;1.05;;;17.70;99.90;;;;;;4891615;29;20771;-83
2022/07/25 07:18:11;;;;;;;2.50;1.10;;;17.80;99.90;;;;;;4894792;29;20672;-83
2022/07/25 07:20:39;;;;;;;2.22;1.15;;;17.90;99.90;;;;;;4895157;29;20918;-83
2022/07/25 07:23:06;;;;;;;1.80;1.20;;;17.90;99.90;;;;;;4891787;29;20504;-82
2022/07/25 07:25:35;;;;;;;7.47;1.33;;;17.90;99.90;;;;;;4892336;29;20417;-83
2022/07/25 07:28:03;;;;;;;2.53;1.20;;;18.00;99.90;;;;;;4888166;29;20410;-83
2022/07/25 07:30:31;;;;;;;2.47;1.13;;;18.10;99.90;;;;;;4893426;29;20468;-82
2022/07/25 07:33:19;;;;;;;2.60;1.02;;;18.00;99.90;;;;;;4891187;29;20414;-83
2022/07/25 07:35:46;;;;;;;3.22;1.52;;;18.10;99.90;;;;;;4901483;29;20429;-83
2022/07/25 07:38:14;;;;;;;1.10;1.00;;;18.20;99.90;;;;;;4906974;29;20502;-83
2022/07/25 07:40:42;;;;;;;2.35;1.20;;;18.30;99.90;;;;;;4889423;29;20422;-83
2022/07/25 07:43:09;;;;;;;2.35;1.30;;;18.40;99.90;;;;;;4887987;29;20882;-83
2022/07/25 07:45:37;;;;;;;2.43;1.10;;;18.40;99.90;;;;;;4895822;29;20427;-83
2022/07/25 07:48:06;;;;;;;1.95;1.10;;;18.40;99.90;;;;;;4891027;29;20461;-82
2022/07/25 07:50:34;;;;;;;1.35;1.00;;;18.50;99.90;;;;;;4886632;29;20415;-82
2022/07/25 07:53:02;;;;;;;2.10;1.10;;;18.50;99.90;;;;;;4891991;29;20783;-83
2022/07/25 07:55:47;;;;;;;2.22;1.02;;;18.50;99.90;;;;;;4899240;29;20457;-83
2022/07/25 07:58:17;;;;;;;1.58;1.10;;;18.60;99.90;;;;;;4903643;29;20862;-83
2022/07/25 08:00:47;;;;;;;1.50;1.02;;;18.60;99.90;;;;;;4896986;29;20409;-83
2022/07/25 08:03:19;;;;;;;3.58;1.25;;;18.70;99.90;;;;;;4890243;29;20441;-83
2022/07/25 08:05:48;;;;;;;2.22;1.10;;;18.70;99.90;;;;;;4889650;29;20423;-83
2022/07/25 08:08:16;;;;;;;1.23;1.10;;;18.70;99.90;;;;;;4889417;29;20739;-83
2022/07/25 08:10:47;;;;;;;1.30;1.20;;;18.80;99.90;;;;;;4879964;29;20399;-83
2022/07/25 08:13:27;;;;;;;1.50;1.10;;;18.90;99.90;;;;;;4886585;29;20415;-83
2022/07/25 08:16:01;;;;;;;2.60;1.17;;;18.90;99.90;;;;;;4896825;29;20512;-83
2022/07/25 08:18:32;;;;;;;3.30;1.20;;;18.90;99.90;;;;;;4893583;29;20427;-83
2022/07/25 08:21:02;;;;;;;1.95;1.13;;;19.00;99.90;;;;;;4890392;29;20765;-83
2022/07/25 08:23:33;;;;;;;1.85;1.17;;;19.00;99.90;;;;;;4888728;29;20437;-83
2022/07/25 08:26:01;;;;;;;1.77;1.25;;;19.00;99.90;;;;;;4903113;29;20423;-83
2022/07/25 08:28:29;;;;;;;2.60;1.20;;;19.00;99.90;;;;;;4893666;29;20445;-82
2022/07/25 08:30:57;;;;;;;1.30;1.10;;;19.10;99.90;;;;;;4890302;29;20406;-83
2022/07/25 08:33:25;;;;;;;2.77;1.00;;;19.30;99.90;;;;;;4904517;29;20502;-83
2022/07/25 08:35:54;;;;;;;2.70;1.10;;;19.40;99.90;;;;;;4896522;29;20504;-83
2022/07/25 08:38:23;;;;;;;2.90;1.25;;;19.40;99.90;;;;;;4888598;29;20432;-83
2022/07/25 08:40:53;;;;;;;2.70;1.00;;;19.40;99.90;;;;;;4887729;29;20508;-83
2022/07/25 08:43:21;;;;;;;4.38;1.27;;;19.50;99.90;;;;;;4882971;29;20890;-83
2022/07/25 08:45:53;;;;;;;2.20;1.20;;;19.40;99.90;;;;;;4897214;29;20419;-82
2022/07/25 08:48:24;;;;;;;2.70;1.10;;;19.40;99.90;;;;;;4899835;29;20418;-82
2022/07/25 08:50:53;;;;;;;2.53;1.38;;;19.40;99.90;;;;;;4896319;29;20441;-83
2022/07/25 08:53:21;;;;;;;1.73;1.02;;;19.50;99.90;;;;;;4903173;29;20417;-83
2022/07/25 08:56:06;;;;;;;1.90;1.20;;;19.60;99.90;;;;;;4882811;29;20414;-83
2022/07/25 08:58:41;;;;;;;2.00;1.00;;;19.60;99.90;;;;;;4885215;29;21053;-83
2022/07/25 09:01:13;;;;;;;2.63;1.00;;;19.70;99.90;;;;;;4892767;29;20411;-83
2022/07/25 09:03:42;;;;;;;1.48;1.05;;;19.80;99.90;;;;;;4914816;29;20458;-82
2022/07/25 09:06:19;;;;;;;2.00;1.10;;;20.00;99.90;;;;;;4890753;29;20413;-82
2022/07/25 09:09:00;;;;;;;1.77;1.00;;;20.00;99.90;;;;;;4903870;29;20413;-82
2022/07/25 09:11:30;;;;;;;1.70;1.03;;;19.90;99.90;;;;;;4903676;29;20406;-83
2022/07/25 09:14:09;;;;;;;1.70;1.10;;;20.00;99.90;;;;;;4901491;29;20486;-82
2022/07/25 09:16:43;;;;;;;1.75;1.00;;;20.10;99.90;;;;;;4886647;29;20488;-83
2022/07/25 09:19:16;;;;;;;2.72;1.15;;;20.20;99.90;;;;;;4903748;29;20413;-83
2022/07/25 09:21:56;;;;;;;1.85;0.98;;;20.30;99.90;;;;;;4894661;29;20510;-82
2022/07/25 09:24:26;;;;;;;3.03;0.90;;;20.40;99.90;;;;;;4889952;29;20508;-83
2022/07/25 09:26:56;;;;;;;1.00;0.90;;;20.30;99.90;;;;;;4887117;29;20501;-83
2022/07/25 09:29:31;;;;;;;1.55;0.98;;;20.50;99.90;;;;;;4884468;29;20506;-83
2022/07/25 09:32:19;;;;;;;2.10;1.20;;;20.60;99.90;;;;;;4903737;29;21333;-82
2022/07/25 09:34:49;;;;;;;3.03;1.27;;;20.60;99.90;;;;;;4891738;29;20957;-83
2022/07/25 09:37:18;;;;;;;1.70;1.10;;;20.40;99.90;;;;;;4869877;29;20411;-83
2022/07/25 09:39:50;;;;;;;1.15;0.80;;;20.20;99.90;;;;;;4907221;29;20405;-83
2022/07/25 09:42:33;;;;;;;1.02;0.90;;;20.30;99.90;;;;;;4892349;29;20421;-83
2022/07/25 09:45:11;;;;;;;1.58;0.90;;;20.60;99.90;;;;;;4899935;29;20534;-82
2022/07/25 09:47:56;;;;;;;2.95;1.00;;;20.60;99.90;;;;;;4879701;29;20422;-83
2022/07/25 09:50:27;;;;;;;1.48;0.90;;;20.80;99.90;;;;;;4901350;29;20456;-83
2022/07/25 09:53:01;;;;;;;1.47;1.00;;;20.80;99.90;;;;;;4893757;29;20408;-83
2022/07/25 09:55:30;;;;;;;1.20;1.00;;;21.00;99.90;;;;;;4891761;29;20834;-82
2022/07/25 09:57:59;;;;;;;3.00;1.10;;;21.10;99.90;;;;;;4888267;29;20419;-83
2022/07/25 10:00:28;;;;;;;2.00;1.20;;;21.10;99.90;;;;;;4890658;29;20904;-82
2022/07/25 10:03:25;;;;;;;1.80;1.10;;;20.80;99.90;;;;;;4881815;29;20434;-83
2022/07/25 10:06:26;;;;;;;1.55;1.17;;;20.80;99.90;;;;;;4887614;29;20422;-83
2022/07/25 10:08:56;;;;;;;2.70;1.10;;;21.00;99.90;;;;;;4888183;29;20415;-83
2022/07/25 10:11:26;;;;;;;1.55;1.10;;;21.00;99.90;;;;;;4886717;29;20405;-82
2022/07/25 10:13:55;;;;;;;2.28;1.02;;;21.00;99.90;;;;;;4881540;29;20509;-83
2022/07/25 10:16:26;;;;;;;2.70;1.40;;;21.00;99.90;;;;;;4885789;29;20415;-83
2022/07/25 10:18:57;;;;;;;1.17;1.00;;;21.10;99.90;;;;;;4880829;29;20421;-82
2022/07/25 10:21:27;;;;;;;1.73;1.10;;;21.10;99.90;;;;;;4885621;29;20502;-84
2022/07/25 10:24:05;;;;;;;2.45;1.17;;;21.20;99.90;;;;;;4888308;29;20920;-83
2022/07/25 10:26:38;;;;;;;2.95;1.30;;;21.30;99.90;;;;;;4888197;29;20421;-83
2022/07/25 10:29:09;;;;;;;1.20;1.10;;;21.40;99.90;;;;;;4885966;29;20458;-83
2022/07/25 10:31:41;;;;;;;2.80;1.43;;;21.40;99.90;;;;;;4902637;29;20449;-83
2022/07/25 10:34:29;;;;;;;3.40;1.23;;;21.60;99.90;;;;;;4900748;29;20824;-84
2022/07/25 10:37:13;;;;;;;1.35;1.17;;;21.70;99.90;;;;;;4886883;29;20420;-83
2022/07/25 10:39:43;;;;;;;4.68;1.25;;;21.70;99.90;;;;;;4886005;29;20442;-83
2022/07/25 10:42:22;;;;;;;1.90;1.20;;;21.40;99.90;;;;;;4893397;29;20444;-83
2022/07/25 10:44:57;;;;;;;1.98;1.25;;;21.30;99.90;;;;;;4887437;29;20454;-83
2022/07/25 10:47:27;;;;;;;3.85;1.48;;;21.20;99.90;;;;;;4888024;29;20981;-83
2022/07/25 10:49:58;;;;;;;2.00;1.40;;;21.10;99.90;;;;;;4904544;29;20430;-82
2022/07/25 10:52:59;;;;;;;3.00;1.25;;;21.10;99.90;;;;;;4890881;29;20407;-83
2022/07/25 10:55:29;;;;;;;1.65;1.30;;;21.10;99.90;;;;;;4889443;29;20397;-83
2022/07/25 10:58:05;;;;;;;2.80;1.23;;;21.30;99.90;;;;;;4891910;29;20452;-84
2022/07/25 11:00:49;;;;;;;3.10;1.40;;;21.50;99.90;;;;;;4900893;29;20489;-83
2022/07/25 11:03:19;;;;;;;3.83;1.50;;;21.60;99.90;;;;;;4898024;29;20806;-84
2022/07/25 11:05:47;;;;;;;1.98;1.30;;;21.50;99.90;;;;;;4890098;29;20443;-82
2022/07/25 11:08:15;;;;;;;2.50;1.30;;;21.60;99.90;;;;;;4890977;29;20981;-83
2022/07/25 11:10:51;;;;;;;1.97;1.30;;;21.50;99.90;;;;;;4889215;29;20535;-84
2022/07/25 11:13:20;;;;;;;4.15;1.40;;;21.40;99.90;;;;;;4897627;29;20441;-84
2022/07/25 11:15:48;;;;;;;3.72;1.40;;;21.30;99.90;;;;;;4886857;29;20918;-83
2022/07/25 11:18:29;;;;;;;1.93;1.43;;;21.50;99.90;;;;;;4896121;29;20421;-83
2022/07/25 11:21:02;;;;;;;2.30;1.40;;;21.80;99.90;;;;;;4905196;29;20484;-84
2022/07/25 11:23:34;;;;;;;1.77;1.30;;;22.00;99.90;;;;;;4893044;29;20428;-83
2022/07/25 11:26:10;;;;;;;3.20;1.38;;;21.80;99.90;;;;;;4903801;29;20913;-84
2022/07/25 11:28:44;;;;;;;2.53;1.13;;;21.70;99.90;;;;;;4887704;29;20424;-83
2022/07/25 11:31:13;;;;;;;2.33;1.30;;;21.90;99.90;;;;;;4896680;29;20762;-83
2022/07/25 11:33:43;;;;;;;1.90;1.23;;;22.10;99.90;;;;;;4895358;29;20398;-83
2022/07/25 11:36:11;;;;;;;1.90;1.30;;;22.30;99.90;;;;;;4890312;29;20901;-83
2022/07/25 11:38:40;;;;;;;2.05;1.27;;;22.30;99.90;;;;;;4890847;29;20394;-84
2022/07/25 11:41:08;;;;;;;2.67;1.48;;;22.10;99.90;;;;;;4905311;29;20413;-82
2022/07/25 11:43:35;;;;;;;2.30;1.33;;;22.10;99.90;;;;;;4881055;29;20402;-83
2022/07/25 11:46:06;;;;;;;2.58;1.20;;;22.00;99.90;;;;;;4904571;29;20399;-83
2022/07/25 11:48:37;;;;;;;2.80;1.20;;;22.10;99.90;;;;;;4890484;29;20475;-83
2022/07/25 11:51:13;;;;;;;1.98;1.30;;;22.40;99.90;;;;;;4880169;29;20395;-84
2022/07/25 11:53:48;;;;;;;2.80;1.48;;;22.40;99.90;;;;;;4880207;29;20399;-82
2022/07/25 11:56:19;;;;;;;2.60;1.20;;;22.50;99.90;;;;;;4882628;29;20496;-83
2022/07/25 11:59:07;;;;;;;2.20;1.33;;;22.50;99.90;;;;;;4885862;29;20414;-84
2022/07/25 12:01:37;;;;;;;2.50;1.48;;;22.70;99.90;;;;;;4909164;29;20737;-84
2022/07/25 12:04:18;;;;;;;1.73;1.20;;;23.00;99.90;;;;;;4898568;29;20504;-84
2022/07/25 12:06:49;;;;;;;2.25;1.45;;;23.20;99.90;;;;;;4897620;29;20413;-84
2022/07/25 12:09:21;;;;;;;2.10;1.20;;;23.30;99.90;;;;;;4889505;29;20416;-83
2022/07/25 12:11:49;;;;;;;2.70;1.48;;;23.10;99.90;;;;;;4880682;29;20418;-83
2022/07/25 12:14:17;;;;;;;3.45;1.60;;;22.90;99.90;;;;;;4889481;29;20409;-84
2022/07/25 12:16:44;;;;;;;2.90;1.30;;;22.80;99.90;;;;;;4890595;29;20417;-84
2022/07/25 12:19:21;;;;;;;1.98;1.30;;;22.90;99.90;;;;;;4885135;29;20488;-84
2022/07/25 12:21:49;;;;;;;1.70;1.30;;;23.10;99.90;;;;;;4884364;29;20414;-83
2022/07/25 12:24:17;;;;;;;2.55;1.30;;;23.20;99.90;;;;;;4895627;29;20416;-84
2022/07/25 12:26:45;;;;;;;2.10;1.13;;;23.00;99.90;;;;;;4912976;29;20922;-83
2022/07/25 12:29:12;;;;;;;1.80;1.25;;;22.80;99.90;;;;;;4895456;29;20425;-83
2022/07/25 12:31:40;;;;;;;1.58;1.20;;;22.90;99.90;;;;;;4901899;29;20419;-84
2022/07/25 12:34:07;;;;;;;1.40;1.30;;;23.20;99.90;;;;;;4901115;29;20583;-84
2022/07/25 12:36:42;;;;;;;2.95;1.42;;;23.30;99.90;;;;;;4884209;29;20415;-84
2022/07/25 12:39:10;;;;;;;3.20;1.60;;;23.50;99.90;;;;;;4895787;29;20401;-84
2022/07/25 12:41:41;;;;;;;4.78;1.50;;;23.50;99.90;;;;;;4906674;29;20453;-83
2022/07/25 12:44:09;;;;;;;2.88;1.30;;;23.30;99.90;;;;;;4895975;29;20417;-83
2022/07/25 12:46:39;;;;;;;2.40;1.30;;;23.30;99.90;;;;;;4894842;29;20705;-83
2022/07/25 12:49:11;;;;;;;4.20;1.67;;;23.30;99.90;;;;;;4902314;29;20423;-83
2022/07/25 12:51:38;;;;;;;3.30;1.60;;;23.00;99.90;;;;;;4886856;29;20402;-82
2022/07/25 12:54:06;;;;;;;5.00;1.40;;;22.80;99.90;;;;;;4887410;29;20880;-83
2022/07/25 12:56:34;;;;;;;5.03;1.70;;;22.80;99.90;;;;;;4892549;29;20411;-85
2022/07/25 12:59:02;;;;;;;2.08;1.20;;;23.10;99.90;;;;;;4894240;29;20417;-83
2022/07/25 13:01:30;;;;;;;2.30;1.50;;;23.30;99.90;;;;;;4889803;29;20498;-84
2022/07/25 13:03:58;;;;;;;3.05;1.40;;;23.50;99.90;;;;;;4898979;29;20906;-84
2022/07/25 13:06:25;;;;;;;3.60;1.40;;;23.60;99.90;;;;;;4893474;29;20400;-83
2022/07/25 13:08:53;;;;;;;2.55;1.20;;;23.60;99.90;;;;;;4903464;29;20411;-84